createdAt,value
2023-12-22T00:00:03.602Z,61.01
2023-12-22T00:02:18.011Z,61.02
2023-12-22T00:04:30.348Z,61.19
2023-12-22T00:06:44.484Z,61.24
2023-12-22T00:08:57.076Z,61.25
2023-12-22T00:11:09.511Z,61.33
2023-12-22T00:13:21.963Z,61.20
2023-12-22T00:15:34.480Z,61.40
2023-12-22T00:17:47.291Z,61.43
2023-12-22T00:20:05.167Z,61.17
2023-12-22T00:22:17.977Z,61.46
2023-12-22T00:24:30.463Z,61.40
2023-12-22T00:26:42.977Z,61.48
2023-12-22T00:28:55.421Z,61.39
2023-12-22T00:31:07.904Z,61.64
2023-12-22T00:33:20.550Z,61.82
2023-12-22T00:35:33.260Z,61.91
2023-12-22T00:37:45.834Z,61.58
2023-12-22T00:39:58.790Z,61.69
2023-12-22T00:42:11.954Z,62.00
2023-12-22T00:44:24.253Z,62.17
2023-12-22T00:46:36.709Z,62.13
2023-12-22T00:48:49.391Z,62.47
2023-12-22T00:51:02.151Z,62.34
2023-12-22T00:53:14.867Z,62.23
2023-12-22T00:55:27.402Z,62.58
2023-12-22T00:57:40.267Z,63.03
2023-12-22T00:59:53.040Z,63.04
2023-12-22T01:02:05.786Z,62.92
2023-12-22T01:04:18.475Z,63.05
2023-12-22T01:06:32.458Z,63.06
2023-12-22T01:08:45.528Z,63.29
2023-12-22T01:10:58.015Z,63.12
2023-12-22T01:13:10.613Z,63.28
2023-12-22T01:15:23.278Z,63.37
2023-12-22T01:17:35.717Z,63.33
2023-12-22T01:19:48.073Z,63.60
2023-12-22T01:22:00.420Z,63.85
2023-12-22T01:24:13.127Z,63.62
2023-12-22T01:26:25.477Z,63.66
2023-12-22T01:28:38.336Z,63.86
2023-12-22T01:30:50.948Z,63.85
2023-12-22T01:33:03.992Z,64.12
2023-12-22T01:35:16.551Z,64.04
2023-12-22T01:37:28.846Z,64.43
2023-12-22T01:39:41.185Z,64.36
2023-12-22T01:41:53.857Z,64.31
2023-12-22T01:44:06.080Z,64.46
2023-12-22T01:46:19.754Z,64.25
2023-12-22T01:48:32.984Z,64.57
2023-12-22T01:50:46.530Z,64.15
2023-12-22T01:52:59.802Z,64.57
2023-12-22T01:55:14.946Z,64.57
2023-12-22T01:57:27.858Z,64.52
2023-12-22T01:59:41.472Z,64.71
2023-12-22T02:01:53.830Z,64.94
2023-12-22T02:04:06.706Z,64.86
2023-12-22T02:06:20.368Z,64.79
2023-12-22T02:08:35.597Z,64.98
2023-12-22T02:10:48.021Z,64.96
2023-12-22T02:13:00.655Z,65.17
2023-12-22T02:15:14.942Z,65.39
2023-12-22T02:17:36.280Z,65.36
2023-12-22T02:19:51.038Z,65.56
2023-12-22T02:22:10.568Z,65.56
2023-12-22T02:24:22.799Z,65.88
2023-12-22T02:26:47.035Z,65.91
2023-12-22T02:29:01.661Z,66.05
2023-12-22T02:31:20.956Z,66.37
2023-12-22T02:33:35.725Z,66.39
2023-12-22T02:35:52.186Z,66.52
2023-12-22T02:38:06.265Z,66.45
2023-12-22T02:40:21.616Z,66.71
2023-12-22T02:42:34.759Z,67.04
2023-12-22T02:44:47.858Z,67.10
2023-12-22T02:47:00.453Z,67.38
2023-12-22T02:49:15.487Z,67.26
2023-12-22T02:51:27.946Z,67.45
2023-12-22T02:53:40.450Z,67.43
2023-12-22T02:55:53.582Z,67.59
2023-12-22T02:58:06.331Z,67.78
2023-12-22T03:00:20.767Z,67.81
2023-12-22T03:02:33.283Z,67.84
2023-12-22T03:04:45.797Z,67.86
2023-12-22T03:06:58.182Z,68.04
2023-12-22T03:09:10.759Z,68.06
2023-12-22T03:11:23.063Z,67.98
2023-12-22T03:13:35.814Z,68.20
2023-12-22T03:15:49.396Z,68.34
2023-12-22T03:18:02.948Z,68.53
2023-12-22T03:20:16.709Z,68.85
2023-12-22T03:22:28.914Z,68.78
2023-12-22T03:24:41.849Z,68.81
2023-12-22T03:26:54.759Z,68.81
2023-12-22T03:29:07.363Z,68.93
2023-12-22T03:31:20.038Z,69.10
2023-12-22T03:33:32.902Z,69.27
2023-12-22T03:35:45.333Z,69.36
2023-12-22T03:37:57.687Z,69.36
2023-12-22T03:40:11.904Z,69.69
2023-12-22T03:42:24.782Z,69.80
2023-12-22T03:44:37.216Z,70.06
2023-12-22T03:46:50.615Z,70.10
2023-12-22T03:49:03.338Z,70.23
2023-12-22T03:51:16.989Z,70.29
2023-12-22T03:53:29.777Z,70.44
2023-12-22T03:55:42.032Z,70.40
2023-12-22T03:57:54.332Z,70.45
2023-12-22T04:00:07.736Z,70.46
2023-12-22T04:02:20.349Z,70.51
2023-12-22T04:04:33.220Z,70.51
2023-12-22T04:06:47.296Z,70.32
2023-12-22T04:09:00.138Z,70.42
2023-12-22T04:11:12.575Z,70.46
2023-12-22T04:13:25.264Z,70.53
2023-12-22T04:15:38.035Z,70.49
2023-12-22T04:17:50.728Z,70.42
2023-12-22T04:20:03.321Z,70.49
2023-12-22T04:22:15.771Z,70.44
2023-12-22T04:24:28.003Z,70.47
2023-12-22T04:26:40.688Z,70.65
2023-12-22T04:28:53.024Z,70.55
2023-12-22T04:31:05.432Z,70.44
2023-12-22T04:33:18.013Z,70.35
2023-12-22T04:35:30.422Z,70.35
2023-12-22T04:37:42.789Z,70.23
2023-12-22T04:39:55.759Z,70.12
2023-12-22T04:42:08.260Z,69.99
2023-12-22T04:44:20.649Z,70.06
2023-12-22T04:46:33.000Z,70.04
2023-12-22T04:48:45.890Z,69.90
2023-12-22T04:50:58.416Z,69.89
2023-12-22T04:53:11.005Z,70.10
2023-12-22T04:55:24.309Z,69.88
2023-12-22T04:57:36.648Z,70.05
2023-12-22T04:59:49.017Z,70.22
2023-12-22T05:02:01.988Z,70.20
2023-12-22T05:04:14.373Z,70.21
2023-12-22T05:06:26.969Z,70.24
2023-12-22T05:08:39.457Z,70.21
2023-12-22T05:10:51.887Z,70.21
2023-12-22T05:13:04.149Z,70.51
2023-12-22T05:15:17.552Z,70.56
2023-12-22T05:17:30.226Z,70.57
2023-12-22T05:19:43.271Z,70.58
2023-12-22T05:21:58.083Z,70.74
2023-12-22T05:24:11.113Z,70.74
2023-12-22T05:26:26.168Z,70.88
2023-12-22T05:28:38.914Z,71.03
2023-12-22T05:30:51.521Z,70.83
2023-12-22T05:33:04.061Z,70.97
2023-12-22T05:35:16.566Z,71.26
2023-12-22T05:37:29.023Z,71.05
2023-12-22T05:39:41.294Z,71.13
2023-12-22T05:41:53.478Z,71.14
2023-12-22T05:44:06.469Z,71.11
2023-12-22T05:46:18.839Z,71.22
2023-12-22T05:48:31.756Z,71.14
2023-12-22T05:50:44.356Z,71.41
2023-12-22T05:52:56.936Z,71.53
2023-12-22T05:55:10.641Z,71.52
2023-12-22T05:57:22.891Z,71.65
2023-12-22T05:59:35.523Z,71.90
2023-12-22T06:01:47.989Z,71.97
2023-12-22T06:04:00.384Z,72.49
2023-12-22T06:06:13.568Z,71.98
2023-12-22T06:08:25.949Z,72.03
2023-12-22T06:10:38.301Z,72.28
2023-12-22T06:12:50.701Z,72.21
2023-12-22T06:15:03.122Z,72.37
2023-12-22T06:17:15.388Z,72.46
2023-12-22T06:19:30.758Z,72.32
2023-12-22T06:21:46.191Z,72.25
2023-12-22T06:23:58.703Z,72.41
2023-12-22T06:26:14.779Z,72.65
2023-12-22T06:28:27.614Z,72.63
2023-12-22T06:30:40.233Z,72.79
2023-12-22T06:32:52.999Z,72.75
2023-12-22T06:35:05.982Z,72.94
2023-12-22T06:37:18.958Z,73.14
2023-12-22T06:39:31.551Z,73.05
2023-12-22T06:41:44.730Z,73.42
2023-12-22T06:43:57.269Z,73.27
2023-12-22T06:46:18.490Z,73.70
2023-12-22T06:48:32.099Z,73.71
2023-12-22T06:50:46.967Z,73.52
2023-12-22T06:53:04.467Z,73.91
2023-12-22T06:55:22.596Z,74.03
2023-12-22T06:57:36.350Z,74.11
2023-12-22T06:59:51.405Z,73.95
2023-12-22T07:02:12.495Z,74.18
2023-12-22T07:05:10.303Z,74.02
2023-12-22T07:07:22.974Z,74.08
2023-12-22T07:09:39.350Z,74.27
2023-12-22T07:11:53.069Z,74.23
2023-12-22T07:14:05.559Z,74.37
2023-12-22T07:16:19.126Z,74.72
2023-12-22T07:18:32.682Z,74.65
2023-12-22T07:20:44.956Z,74.85
2023-12-22T07:22:58.520Z,75.04
2023-12-22T07:25:13.580Z,75.14
2023-12-22T07:27:27.595Z,75.19
2023-12-22T07:29:41.139Z,75.35
2023-12-22T07:31:53.676Z,75.55
2023-12-22T07:34:07.624Z,75.84
2023-12-22T07:36:23.631Z,75.76
2023-12-22T07:38:36.608Z,75.77
2023-12-22T07:40:49.079Z,75.69
2023-12-22T07:43:01.636Z,75.81
2023-12-22T07:45:15.168Z,76.09
2023-12-22T07:47:27.524Z,75.98
2023-12-22T07:49:39.886Z,76.21
2023-12-22T07:51:53.839Z,76.28
2023-12-22T07:54:07.152Z,76.32
2023-12-22T07:56:19.786Z,76.75
2023-12-22T07:58:32.453Z,76.85
2023-12-22T08:00:44.802Z,76.73
2023-12-22T08:02:57.310Z,76.62
2023-12-22T08:05:10.536Z,76.67
2023-12-22T08:07:23.173Z,76.67
2023-12-22T08:09:36.679Z,76.83
2023-12-22T08:11:49.826Z,77.08
2023-12-22T08:14:02.487Z,76.83
2023-12-22T08:16:15.054Z,77.11
2023-12-22T08:18:27.497Z,77.24
2023-12-22T08:20:42.275Z,77.28
2023-12-22T08:22:57.478Z,76.95
2023-12-22T08:25:11.221Z,77.40
2023-12-22T08:27:26.453Z,77.32
2023-12-22T08:29:39.477Z,77.37
2023-12-22T08:31:51.876Z,77.46
2023-12-22T08:34:04.476Z,77.24
2023-12-22T08:36:17.071Z,77.48
2023-12-22T08:38:29.701Z,77.58
2023-12-22T08:40:42.585Z,77.39
2023-12-22T08:42:56.817Z,77.66
2023-12-22T08:45:09.999Z,77.43
2023-12-22T08:47:22.533Z,77.79
2023-12-22T08:49:34.893Z,77.76
2023-12-22T08:51:47.278Z,77.79
2023-12-22T08:53:59.775Z,77.86
2023-12-22T08:56:12.311Z,77.93
2023-12-22T08:58:24.839Z,77.87
2023-12-22T09:00:37.519Z,78.05
2023-12-22T09:02:50.102Z,77.72
2023-12-22T09:05:02.585Z,78.23
2023-12-22T09:07:15.051Z,77.75
2023-12-22T09:09:27.689Z,78.02
2023-12-22T09:11:40.456Z,78.09
2023-12-22T09:13:53.153Z,78.11
2023-12-22T09:16:06.408Z,78.08
2023-12-22T09:18:19.056Z,78.12
2023-12-22T09:20:32.264Z,78.20
2023-12-22T09:22:44.605Z,78.08
2023-12-22T09:24:57.273Z,78.01
2023-12-22T09:27:09.810Z,77.94
2023-12-22T09:29:23.722Z,77.97
2023-12-22T09:31:36.674Z,78.17
2023-12-22T09:33:49.504Z,78.16
2023-12-22T09:36:02.119Z,78.15
2023-12-22T09:38:15.411Z,78.09
2023-12-22T09:40:27.933Z,78.18
2023-12-22T09:42:41.579Z,78.37
2023-12-22T09:44:57.284Z,78.41
2023-12-22T09:47:11.829Z,78.48
2023-12-22T09:49:25.242Z,78.73
2023-12-22T09:51:41.155Z,78.66
2023-12-22T09:53:54.582Z,78.76
2023-12-22T09:56:08.230Z,78.73
2023-12-22T09:58:21.275Z,78.99
2023-12-22T10:00:35.737Z,78.90
2023-12-22T10:02:48.693Z,79.05
2023-12-22T10:05:01.147Z,79.28
2023-12-22T10:07:16.724Z,79.16
2023-12-22T10:09:29.789Z,79.24
2023-12-22T10:11:43.667Z,79.15
2023-12-22T10:13:58.965Z,79.37
2023-12-22T10:16:13.583Z,79.15
2023-12-22T10:18:26.293Z,79.32
2023-12-22T10:20:38.822Z,79.36
2023-12-22T10:22:51.180Z,79.39
2023-12-22T10:25:04.909Z,79.42
2023-12-22T10:27:18.865Z,79.40
2023-12-22T10:29:31.281Z,79.72
2023-12-22T10:31:47.971Z,79.42
2023-12-22T10:34:00.242Z,79.69
2023-12-22T10:36:14.316Z,79.70
2023-12-22T10:38:27.791Z,79.58
2023-12-22T10:40:41.098Z,79.94
2023-12-22T10:42:55.043Z,79.51
2023-12-22T10:45:08.063Z,79.82
2023-12-22T10:47:21.190Z,79.94
2023-12-22T10:49:36.136Z,80.12
2023-12-22T10:51:48.682Z,79.83
2023-12-22T10:54:01.098Z,79.82
2023-12-22T10:56:14.414Z,79.31
2023-12-22T10:58:26.900Z,79.14
2023-12-22T11:00:40.000Z,79.30
2023-12-22T11:03:00.539Z,79.01
2023-12-22T11:05:14.706Z,78.92
2023-12-22T11:07:30.156Z,78.82
2023-12-22T11:09:47.015Z,78.55
2023-12-22T11:12:00.330Z,78.92
2023-12-22T11:14:14.386Z,78.57
2023-12-22T11:16:28.237Z,78.60
2023-12-22T11:18:42.584Z,78.77
2023-12-22T11:20:55.648Z,78.57
2023-12-22T11:23:09.615Z,78.85
2023-12-22T11:25:22.898Z,78.84
2023-12-22T11:27:37.361Z,78.69
2023-12-22T11:29:52.015Z,78.95
2023-12-22T11:32:08.728Z,79.04
2023-12-22T11:34:21.888Z,78.93
2023-12-22T11:36:35.478Z,79.35
2023-12-22T11:38:48.970Z,79.46
2023-12-22T11:41:03.876Z,79.57
2023-12-22T11:43:17.059Z,79.79
2023-12-22T11:45:29.802Z,79.74
2023-12-22T11:47:43.349Z,79.90
2023-12-22T11:50:08.257Z,80.15
2023-12-22T11:52:34.343Z,80.30
2023-12-22T11:54:54.367Z,80.42
2023-12-22T11:57:08.918Z,80.28
2023-12-22T11:59:42.611Z,80.74
2023-12-22T12:02:18.011Z,80.93
2023-12-22T12:04:51.726Z,81.04
2023-12-22T12:07:51.718Z,81.27
2023-12-22T12:10:37.737Z,80.98
2023-12-22T12:13:10.783Z,81.01
2023-12-22T12:15:33.929Z,81.11
2023-12-22T12:18:07.868Z,81.48
2023-12-22T12:20:20.763Z,81.09
2023-12-22T12:22:35.627Z,81.07
2023-12-22T12:24:48.964Z,81.34
2023-12-22T12:27:01.792Z,81.37
2023-12-22T12:29:17.664Z,81.13
2023-12-22T12:31:44.017Z,81.01
2023-12-22T12:33:57.352Z,80.87
2023-12-22T12:36:20.300Z,80.95
2023-12-22T12:38:46.905Z,80.93
2023-12-22T12:41:01.273Z,80.90
2023-12-22T12:43:14.896Z,80.85
2023-12-22T12:45:31.241Z,81.01
2023-12-22T12:47:43.618Z,80.98
2023-12-22T12:50:03.398Z,81.21
2023-12-22T12:52:19.835Z,81.15
2023-12-22T12:54:32.665Z,81.31
2023-12-22T12:56:46.758Z,81.53
2023-12-22T12:58:59.820Z,81.79
2023-12-22T13:01:26.067Z,81.55
2023-12-22T13:03:58.418Z,81.60
2023-12-22T13:06:17.193Z,81.74
2023-12-22T13:08:36.273Z,82.20
2023-12-22T13:11:04.050Z,82.09
2023-12-22T13:13:17.443Z,82.58
2023-12-22T13:15:29.979Z,82.56
2023-12-22T13:17:42.663Z,82.61
2023-12-22T13:19:55.385Z,82.66
2023-12-22T13:22:08.082Z,82.68
2023-12-22T13:24:21.604Z,82.88
2023-12-22T13:26:33.958Z,82.68
2023-12-22T13:29:02.270Z,82.88
2023-12-22T13:31:24.244Z,82.76
2023-12-22T13:33:40.578Z,82.77
2023-12-22T13:35:53.329Z,83.00
2023-12-22T13:38:06.331Z,82.84
2023-12-22T13:40:21.135Z,82.80
2023-12-22T13:42:33.841Z,82.62
2023-12-22T13:44:51.977Z,82.87
2023-12-22T13:47:09.493Z,82.93
2023-12-22T13:49:22.662Z,82.63
2023-12-22T13:51:45.717Z,82.78
2023-12-22T13:54:01.097Z,82.97
2023-12-22T13:56:14.809Z,82.90
2023-12-22T13:58:27.792Z,82.75
2023-12-22T14:00:41.446Z,82.92
2023-12-22T14:02:55.041Z,82.67
2023-12-22T14:05:08.702Z,83.15
2023-12-22T14:07:32.286Z,83.34
2023-12-22T14:09:44.959Z,83.31
2023-12-22T14:12:02.298Z,83.17
2023-12-22T14:14:19.179Z,83.55
2023-12-22T14:16:32.194Z,83.56
2023-12-22T14:18:44.730Z,83.49
2023-12-22T14:20:57.133Z,83.41
2023-12-22T14:23:14.725Z,83.51
2023-12-22T14:25:29.330Z,83.28
2023-12-22T14:27:42.615Z,83.49
2023-12-22T14:29:55.280Z,83.45
2023-12-22T14:32:10.638Z,83.41
2023-12-22T14:34:24.238Z,83.43
2023-12-22T14:36:37.132Z,83.65
2023-12-22T14:38:50.295Z,83.83
2023-12-22T14:41:12.572Z,84.03
2023-12-22T14:43:25.568Z,84.07
2023-12-22T14:45:37.948Z,83.74
2023-12-22T14:47:51.104Z,83.96
2023-12-22T14:50:06.079Z,83.89
2023-12-22T14:52:18.634Z,83.94
2023-12-22T14:54:31.395Z,84.34
2023-12-22T14:56:54.088Z,84.27
2023-12-22T14:59:09.618Z,84.39
2023-12-22T15:01:35.377Z,84.50
2023-12-22T15:03:48.425Z,84.35
2023-12-22T15:06:01.649Z,84.46
2023-12-22T15:08:16.515Z,84.54
2023-12-22T15:10:29.130Z,84.41
2023-12-22T15:12:44.738Z,84.19
2023-12-22T15:14:57.228Z,84.34
2023-12-22T15:17:09.941Z,84.58
2023-12-22T15:19:22.570Z,84.69
2023-12-22T15:21:35.277Z,84.87
2023-12-22T15:23:48.342Z,84.89
2023-12-22T15:26:00.734Z,84.89
2023-12-22T15:28:13.480Z,84.85
2023-12-22T15:30:27.625Z,85.04
2023-12-22T15:32:40.202Z,85.01
2023-12-22T15:34:52.860Z,85.16
2023-12-22T15:37:08.705Z,84.99
2023-12-22T15:39:21.442Z,84.91
2023-12-22T15:41:37.529Z,85.11
2023-12-22T15:43:50.869Z,84.95
2023-12-22T15:46:07.920Z,85.02
2023-12-22T15:48:20.956Z,84.95
2023-12-22T15:50:33.457Z,85.17
2023-12-22T15:52:47.824Z,85.05
2023-12-22T15:55:00.448Z,84.92
2023-12-22T15:57:15.770Z,85.00
2023-12-22T15:59:28.319Z,85.05
2023-12-22T16:01:46.065Z,85.09
2023-12-22T16:03:58.740Z,84.98
2023-12-22T16:06:12.447Z,85.04
2023-12-22T16:08:24.888Z,85.17
2023-12-22T16:10:37.390Z,85.13
2023-12-22T16:12:50.352Z,85.06
2023-12-22T16:15:03.212Z,84.97
2023-12-22T16:17:16.382Z,84.97
2023-12-22T16:19:31.904Z,85.03
2023-12-22T16:21:54.368Z,84.89
2023-12-22T16:24:07.063Z,85.04
2023-12-22T16:26:22.507Z,84.98
2023-12-22T16:28:35.113Z,84.98
2023-12-22T16:30:47.767Z,84.94
2023-12-22T16:33:00.484Z,84.87
2023-12-22T16:35:13.912Z,84.95
2023-12-22T16:37:31.309Z,84.99
2023-12-22T16:39:54.788Z,85.02
2023-12-22T16:42:11.408Z,84.82
2023-12-22T16:44:24.586Z,84.96
2023-12-22T16:46:37.434Z,84.77
2023-12-22T16:48:50.111Z,84.99
2023-12-22T16:51:03.175Z,84.86
2023-12-22T16:53:16.138Z,84.98
2023-12-22T16:55:28.653Z,85.06
2023-12-22T16:57:43.830Z,85.11
2023-12-22T16:59:57.167Z,85.05
2023-12-22T17:02:26.873Z,85.12
2023-12-22T17:04:43.167Z,85.26
2023-12-22T17:06:59.822Z,85.11
2023-12-22T17:09:12.910Z,85.22
2023-12-22T17:11:25.703Z,85.24
2023-12-22T17:13:38.214Z,85.38
2023-12-22T17:15:51.039Z,85.10
2023-12-22T17:18:06.634Z,85.25
2023-12-22T17:20:19.922Z,85.35
2023-12-22T17:22:32.442Z,85.44
2023-12-22T17:24:46.535Z,85.51
2023-12-22T17:26:59.173Z,85.39
2023-12-22T17:29:11.668Z,85.57
2023-12-22T17:31:25.951Z,85.65
2023-12-22T17:33:40.658Z,85.78
2023-12-22T17:35:53.504Z,85.66
2023-12-22T17:38:07.597Z,85.78
2023-12-22T17:40:21.749Z,85.87
2023-12-22T17:42:34.535Z,85.82
2023-12-22T17:44:58.657Z,85.84
2023-12-22T17:47:12.718Z,85.80
2023-12-22T17:49:35.216Z,85.94
2023-12-22T17:51:48.985Z,85.72
2023-12-22T17:54:01.608Z,85.73
2023-12-22T17:56:14.780Z,86.03
2023-12-22T17:58:28.402Z,85.91
2023-12-22T18:00:44.521Z,86.05
2023-12-22T18:02:57.094Z,86.25
2023-12-22T18:05:19.294Z,86.14
2023-12-22T18:07:32.265Z,86.10
2023-12-22T18:09:46.704Z,86.25
2023-12-22T18:11:59.418Z,86.11
2023-12-22T18:14:12.704Z,86.18
2023-12-22T18:16:25.446Z,86.34
2023-12-22T18:18:41.175Z,86.60
2023-12-22T18:21:15.643Z,86.62
2023-12-22T18:23:37.485Z,86.63
2023-12-22T18:25:50.540Z,86.64
2023-12-22T18:28:03.068Z,86.79
2023-12-22T18:30:16.834Z,86.75
2023-12-22T18:32:29.698Z,87.04
2023-12-22T18:34:45.324Z,87.11
2023-12-22T18:37:17.880Z,87.05
2023-12-22T18:39:34.324Z,87.10
2023-12-22T18:41:47.724Z,87.27
2023-12-22T18:44:03.094Z,87.18
2023-12-22T18:46:15.748Z,87.28
2023-12-22T18:48:28.416Z,87.21
2023-12-22T18:50:54.057Z,87.24
2023-12-22T18:53:08.704Z,87.31
2023-12-22T18:55:21.700Z,87.30
2023-12-22T18:57:34.124Z,87.44
2023-12-22T18:59:46.701Z,87.27
2023-12-22T19:02:15.403Z,87.20
2023-12-22T19:04:44.075Z,87.19
2023-12-22T19:07:05.953Z,87.14
2023-12-22T19:09:38.785Z,87.21
2023-12-22T19:11:51.787Z,87.20
2023-12-22T19:14:15.396Z,87.29
2023-12-22T19:16:39.014Z,87.36
2023-12-22T19:18:53.599Z,87.34
2023-12-22T19:21:26.255Z,87.43
2023-12-22T19:23:39.011Z,87.13
2023-12-22T19:26:01.888Z,87.20
2023-12-22T19:28:14.646Z,87.04
2023-12-22T19:30:30.543Z,86.82
2023-12-22T19:32:43.334Z,86.83
2023-12-22T19:34:59.189Z,86.80
2023-12-22T19:37:12.182Z,86.94
2023-12-22T19:39:26.354Z,87.07
2023-12-22T19:41:58.830Z,86.71
2023-12-22T19:44:11.851Z,86.69
2023-12-22T19:46:36.428Z,86.70
2023-12-22T19:48:49.679Z,86.80
2023-12-22T19:51:02.267Z,86.77
2023-12-22T19:53:18.640Z,86.88
2023-12-22T19:55:33.575Z,86.93
2023-12-22T19:57:49.357Z,86.79
2023-12-22T20:00:15.609Z,86.37
2023-12-22T20:02:29.001Z,86.41
2023-12-22T20:04:43.996Z,86.55
2023-12-22T20:06:56.505Z,86.37
2023-12-22T20:09:10.346Z,86.18
2023-12-22T20:11:43.131Z,86.05
2023-12-22T20:13:57.622Z,86.02
2023-12-22T20:16:14.487Z,86.20
2023-12-22T20:18:27.067Z,86.07
2023-12-22T20:20:40.681Z,85.82
2023-12-22T20:22:53.344Z,85.54
2023-12-22T20:25:05.733Z,85.36
2023-12-22T20:27:29.775Z,85.46
2023-12-22T20:29:42.224Z,85.36
2023-12-22T20:32:04.734Z,85.19
2023-12-22T20:34:17.426Z,85.30
2023-12-22T20:36:40.928Z,85.18
2023-12-22T20:38:56.525Z,85.36
2023-12-22T20:41:11.062Z,85.45
2023-12-22T20:43:23.789Z,85.41
2023-12-22T20:45:36.240Z,85.38
2023-12-22T20:47:49.231Z,85.38
2023-12-22T20:50:01.940Z,85.36
2023-12-22T20:52:35.873Z,85.29
2023-12-22T20:54:49.573Z,85.46
2023-12-22T20:57:22.042Z,85.82
2023-12-22T20:59:39.934Z,85.92
2023-12-22T21:01:56.129Z,86.00
2023-12-22T21:04:15.350Z,85.72
2023-12-22T21:06:28.069Z,85.81
2023-12-22T21:08:43.736Z,86.01
2023-12-22T21:10:59.937Z,85.85
2023-12-22T21:13:12.925Z,85.97
2023-12-22T21:15:26.727Z,85.90
2023-12-22T21:17:44.462Z,85.75
2023-12-22T21:20:07.763Z,85.84
2023-12-22T21:22:20.665Z,85.66
2023-12-22T21:24:35.242Z,85.79
2023-12-22T21:26:48.281Z,85.80
2023-12-22T21:29:00.832Z,85.90
2023-12-22T21:31:24.837Z,85.59
2023-12-22T21:33:46.632Z,85.83
2023-12-22T21:35:59.600Z,86.10
2023-12-22T21:38:33.512Z,85.81
2023-12-22T21:40:46.599Z,85.48
2023-12-22T21:42:59.569Z,85.81
2023-12-22T21:45:22.615Z,85.42
2023-12-22T21:47:39.615Z,85.05
2023-12-22T21:49:55.074Z,85.00
2023-12-22T21:52:08.139Z,84.49
2023-12-22T21:54:42.103Z,84.29
2023-12-22T21:57:05.478Z,84.04
2023-12-22T21:59:18.680Z,84.04
2023-12-22T22:01:31.921Z,84.34
2023-12-22T22:03:45.770Z,84.14
2023-12-22T22:06:08.727Z,84.28
2023-12-22T22:08:21.271Z,84.05
2023-12-22T22:10:33.961Z,83.79
2023-12-22T22:12:57.603Z,83.75
2023-12-22T22:15:11.399Z,83.45
2023-12-22T22:17:33.968Z,83.25
2023-12-22T22:19:46.523Z,83.08
2023-12-22T22:21:59.071Z,83.24
2023-12-22T22:24:22.824Z,83.53
2023-12-22T22:26:47.561Z,83.58
2023-12-22T22:29:09.283Z,83.55
2023-12-22T22:31:27.042Z,83.41
2023-12-22T22:33:50.325Z,83.24
2023-12-22T22:36:14.338Z,82.98
2023-12-22T22:38:30.658Z,82.91
2023-12-22T22:40:49.623Z,82.72
2023-12-22T22:43:13.503Z,82.36
2023-12-22T22:45:35.164Z,82.30
2023-12-22T22:47:51.152Z,82.26
2023-12-22T22:50:04.655Z,82.16
2023-12-22T22:52:17.424Z,82.18
2023-12-22T22:54:37.411Z,82.03
2023-12-22T22:57:00.792Z,81.83
2023-12-22T22:59:13.568Z,81.80
2023-12-22T23:01:29.149Z,81.75
2023-12-22T23:04:00.487Z,81.74
2023-12-22T23:06:16.779Z,82.02
2023-12-22T23:08:29.380Z,82.18
2023-12-22T23:10:42.004Z,82.30
2023-12-22T23:12:54.702Z,82.29
2023-12-22T23:15:13.615Z,82.18
2023-12-22T23:17:29.773Z,82.27
2023-12-22T23:19:52.245Z,82.48
2023-12-22T23:22:05.333Z,82.34
2023-12-22T23:24:19.470Z,82.27
2023-12-22T23:26:32.001Z,82.17
2023-12-22T23:29:05.068Z,82.22
2023-12-22T23:31:17.623Z,82.30
2023-12-22T23:33:30.344Z,82.17
2023-12-22T23:35:43.059Z,82.10
2023-12-22T23:38:09.387Z,82.20
2023-12-22T23:40:22.338Z,82.07
2023-12-22T23:42:34.746Z,81.98
2023-12-22T23:44:51.102Z,82.10
2023-12-22T23:47:09.201Z,82.02
2023-12-22T23:49:24.972Z,81.96
2023-12-22T23:51:46.511Z,81.82
2023-12-22T23:53:58.893Z,81.78
2023-12-22T23:56:18.509Z,81.79
2023-12-22T23:58:31.542Z,81.66
